Aérodrome :
LOGIN :

S'inscrire | Disclaimer

   EN    FR    IT 

 










Légende :    VFR   VFR Marginal   IFR   IFR Intensif   IFR Très Intensif
Visi : 
Plafond : 
>= 8 km
>= 3000ft
5 à 8 km
1000 à 3000 ft
1500m à 5 km
500 à 1000 ft
800 à 1500m
200 à 500 ft
< 800m
< 200 ft
Symboles :   Orages  Brouillard  Fortes neiges  Fortes précipitations  Vent > 20 kt
SIGMETs :   Divers  Orages  Givrage  Turbulence  Onde Orograph.  Cendres Volcan.







- Altitude de l'aérodrome : 1910 ft
- Code IATA : RDZ
- Voir les cartes d'approche


LFCR - Rodez

DERNIER METAR :
  • 162200Z AUTO 13014KT CAVOK 09/M13 Q1025 TEMPO 12015G25KT

METARs EXPIRÉS :
  • 162130Z AUTO 13016KT CAVOK 09/M13 Q1025 TEMPO 12015G25KT
  • 162100Z AUTO 12014KT CAVOK 09/M12 Q1026 TEMPO 12015G25KT
  • 162030Z AUTO 12014KT CAVOK 09/M11 Q1026 TEMPO 12015G25KT
  • 162000Z AUTO 13013KT CAVOK 09/M09 Q1025 TEMPO 12015G25KT
  • 161930Z AUTO 12014KT CAVOK 09/M09 Q1025 TEMPO 12015G25KT

TAF TAF LFCR
Valide du 16 à 18h jusqu'au 17 à 18h UTC


161700Z 1618/1718 12010KT CAVOK
PROB40
TEMPO 1620/1718 12015G25KT
Pas de NOTAMs connus pour ce terrain.
2 SIGMETs publiés pour la FIR Bordeaux (LFBB) :
 
Onde orographique forte
LFBB SIGMET 2 VALID 170100/170500 LFPW
LFBB BORDEAUX FIR/UIR SEV MTW FCST WI N4230 E00045 - N4300 W00145 - N4330 W00145 - N4300 E00045 - N4230 E00045 SFC/FL200 STNR WKN=
Turbulence forte
LFBB SIGMET 1 VALID 162110/170100 LFPW
LFBB BORDEAUX FIR/UIR SEV TURB FCST WI N4230 E00045 - N4300 W00145 - N4330 W00145 - N4300 E00045 - N4230 E00045 SFC/FL100 STNR INTSF=



MET'MAP, la Météo Aéronautique d'un coup d'oeil ! - Copyright ORBIFLY Décembre 2007 - Disclaimer

ORBIFLY MET'MAP TEAM :

Programmation & Développement : Alexandra Zaïnal
Conception & Développement : Baudouin d'Aumeries
Co-Programmation & Développement : Marc-Olivier Méhu
Soutien technique & logistique : Manuel Goepfert

Contact : metmap@orbifly.com




SOURCES & CREDITS :

   NOAA